Louvain-la-Neuve, Belgium
Current Conditions -  °F | °C
As of 5:03 AM on Tuesday 23 Dec 2014 (Local Time) from EBBE Reporting Station
Overcast Overcast  
Wind Chill: 52°   Ceiling: 2900
Heat Index: 52°   Visibility: 6mi
Dew Point: 45°   Wind: 21mph
Humidity: 76%   Direction: 240°WSW
Pressure: 30.12"   Gusts: NA
Location:  50.67°N, 4.61°E
Report Text: EBBE 230403Z AUTO 24018KT 9999 FEW021/// BKN029/// OVC033/// 11/07 Q1020 BLU
Loading
Personal Weather Stations






























Interactive Weather Map New forecast layout! Learn more

10-Day Weather Forecast

Advertisements
Track Severe Weather on mobile